createdAt,value
2022-11-18T00:01:59.737Z,11.00
2022-11-18T00:04:28.802Z,11.10
2022-11-18T00:06:56.548Z,11.10
2022-11-18T00:09:24.253Z,11.10
2022-11-18T00:12:09.220Z,11.10
2022-11-18T00:14:36.923Z,11.10
2022-11-18T00:17:05.569Z,11.10
2022-11-18T00:19:35.724Z,11.10
2022-11-18T00:22:03.952Z,11.10
2022-11-18T00:24:32.069Z,11.20
2022-11-18T00:26:59.922Z,11.30
2022-11-18T00:29:28.376Z,11.30
2022-11-18T00:31:56.575Z,11.30
2022-11-18T00:34:24.794Z,11.40
2022-11-18T00:36:54.277Z,11.40
2022-11-18T00:39:24.426Z,11.40
2022-11-18T00:42:12.361Z,11.30
2022-11-18T00:44:40.289Z,11.30
2022-11-18T00:47:16.525Z,11.30
2022-11-18T00:49:52.564Z,11.30
2022-11-18T00:52:24.646Z,11.20
2022-11-18T00:55:12.717Z,11.20
2022-11-18T00:57:43.106Z,11.20
2022-11-18T01:00:11.343Z,11.10
2022-11-18T01:02:39.189Z,11.20
2022-11-18T01:05:12.413Z,11.30
2022-11-18T01:07:43.940Z,11.30
2022-11-18T01:10:11.781Z,11.40
2022-11-18T01:12:57.544Z,11.40
2022-11-18T01:15:27.791Z,11.50
2022-11-18T01:17:58.389Z,11.50
2022-11-18T01:20:26.549Z,11.50
2022-11-18T01:23:13.944Z,11.50
2022-11-18T01:25:43.410Z,11.50
2022-11-18T01:28:11.700Z,11.50
2022-11-18T01:30:42.523Z,11.50
2022-11-18T01:33:10.356Z,11.50
2022-11-18T01:35:42.845Z,11.50
2022-11-18T01:38:11.593Z,11.50
2022-11-18T01:40:41.126Z,11.60
2022-11-18T01:43:13.256Z,11.60
2022-11-18T01:45:43.138Z,11.60
2022-11-18T01:48:20.449Z,11.50
2022-11-18T01:50:58.258Z,11.50
2022-11-18T01:53:33.168Z,11.60
2022-11-18T01:56:05.140Z,11.50
2022-11-18T01:58:35.728Z,11.50
2022-11-18T02:01:04.496Z,11.40
2022-11-18T02:03:32.952Z,11.50
2022-11-18T02:06:02.636Z,11.50
2022-11-18T02:08:37.310Z,11.40
2022-11-18T02:11:30.679Z,11.40
2022-11-18T02:13:59.621Z,11.30
2022-11-18T02:16:30.750Z,11.20
2022-11-18T02:19:02.117Z,11.10
2022-11-18T02:21:39.184Z,11.10
2022-11-18T02:24:19.844Z,10.80
2022-11-18T02:27:17.669Z,10.80
2022-11-18T02:29:51.010Z,10.70
2022-11-18T02:32:20.114Z,10.50
2022-11-18T02:34:51.017Z,10.60
2022-11-18T02:37:23.172Z,10.70
2022-11-18T02:39:55.931Z,10.60
2022-11-18T02:42:24.162Z,10.80
2022-11-18T02:44:59.176Z,10.80
2022-11-18T02:47:28.261Z,10.90
2022-11-18T02:49:58.930Z,10.80
2022-11-18T02:52:35.983Z,10.80
2022-11-18T02:55:06.806Z,10.80
2022-11-18T02:57:35.257Z,10.80
2022-11-18T03:00:07.903Z,11.00
2022-11-18T03:02:41.138Z,11.10
2022-11-18T03:05:19.062Z,11.20
2022-11-18T03:07:51.418Z,11.10
2022-11-18T03:10:22.768Z,11.20
2022-11-18T03:12:53.716Z,11.20
2022-11-18T03:15:25.974Z,11.20
2022-11-18T03:17:59.854Z,11.20
2022-11-18T03:20:56.507Z,11.10
2022-11-18T03:23:27.945Z,11.10
2022-11-18T03:25:57.005Z,11.10
2022-11-18T03:28:29.023Z,11.20
2022-11-18T03:31:06.406Z,11.10
2022-11-18T03:33:44.509Z,11.10
2022-11-18T03:36:16.768Z,10.80
2022-11-18T03:38:49.167Z,10.60
2022-11-18T03:41:18.408Z,10.40
2022-11-18T03:43:49.312Z,10.40
2022-11-18T03:46:21.308Z,10.30
2022-11-18T03:48:52.610Z,10.30
2022-11-18T03:51:23.539Z,10.20
2022-11-18T03:53:53.753Z,10.10
2022-11-18T03:56:23.986Z,10.10
2022-11-18T03:58:54.098Z,10.30
2022-11-18T04:01:26.828Z,10.30
2022-11-18T04:03:57.259Z,10.40
2022-11-18T04:06:31.128Z,10.50
2022-11-18T04:09:04.324Z,10.60
2022-11-18T04:11:55.392Z,10.60
2022-11-18T04:14:25.527Z,10.70
2022-11-18T04:16:54.739Z,10.80
2022-11-18T04:19:22.973Z,10.90
2022-11-18T04:21:51.679Z,10.90
2022-11-18T04:24:24.745Z,11.00
2022-11-18T04:26:52.549Z,11.00
2022-11-18T04:29:20.409Z,11.10
2022-11-18T04:31:55.186Z,11.10
2022-11-18T04:34:22.913Z,11.10
2022-11-18T04:36:50.593Z,11.10
2022-11-18T04:39:18.668Z,11.20
2022-11-18T04:41:58.979Z,11.20
2022-11-18T04:44:27.330Z,11.10
2022-11-18T04:46:57.033Z,11.10
2022-11-18T04:49:25.203Z,11.10
2022-11-18T04:51:53.109Z,11.20
2022-11-18T04:54:21.208Z,11.20
2022-11-18T04:56:49.842Z,11.20
2022-11-18T04:59:19.298Z,11.20
2022-11-18T05:01:47.519Z,11.30
2022-11-18T05:04:17.388Z,11.30
2022-11-18T05:06:45.136Z,11.30
2022-11-18T05:09:13.244Z,11.20
2022-11-18T05:11:59.019Z,11.20
2022-11-18T05:14:26.908Z,11.20
2022-11-18T05:16:54.972Z,11.20
2022-11-18T05:19:24.149Z,11.10
2022-11-18T05:21:51.901Z,10.80
2022-11-18T05:24:19.663Z,10.60
2022-11-18T05:26:47.449Z,10.50
2022-11-18T05:29:15.421Z,10.40
2022-11-18T05:31:43.289Z,10.40
2022-11-18T05:34:11.121Z,10.40
2022-11-18T05:36:40.232Z,10.50
2022-11-18T05:39:07.972Z,10.50
2022-11-18T05:41:53.046Z,10.60
2022-11-18T05:44:20.730Z,10.60
2022-11-18T05:46:48.422Z,10.40
2022-11-18T05:49:16.519Z,10.40
2022-11-18T05:51:45.768Z,10.40
2022-11-18T05:54:14.396Z,10.40
2022-11-18T05:56:44.731Z,10.30
2022-11-18T05:59:12.768Z,10.30
2022-11-18T06:01:42.712Z,10.10
2022-11-18T06:04:12.241Z,10.10
2022-11-18T06:06:40.127Z,10.20
2022-11-18T06:09:09.629Z,10.30
2022-11-18T06:11:38.991Z,10.30
2022-11-18T06:14:08.985Z,10.30
2022-11-18T06:16:41.124Z,10.40
2022-11-18T06:19:09.297Z,10.30
2022-11-18T06:21:37.136Z,10.20
2022-11-18T06:24:05.629Z,10.30
2022-11-18T06:26:34.699Z,10.40
2022-11-18T06:29:02.396Z,10.30
2022-11-18T06:31:30.083Z,10.30
2022-11-18T06:33:57.799Z,10.20
2022-11-18T06:36:25.456Z,10.30
2022-11-18T06:38:54.702Z,10.30
2022-11-18T06:41:22.349Z,10.30
2022-11-18T06:43:51.377Z,10.30
2022-11-18T06:46:36.828Z,10.30
2022-11-18T06:49:04.690Z,10.10
2022-11-18T06:51:32.389Z,10.10
2022-11-18T06:54:00.214Z,10.00
2022-11-18T06:56:27.910Z,9.90
2022-11-18T06:58:57.855Z,9.90
2022-11-18T07:01:26.403Z,9.80
2022-11-18T07:03:54.183Z,9.70
2022-11-18T07:06:22.644Z,9.60
2022-11-18T07:08:50.853Z,9.60
2022-11-18T07:11:19.406Z,9.60
2022-11-18T07:13:47.187Z,9.60
2022-11-18T07:16:17.262Z,9.50
2022-11-18T07:18:45.404Z,9.50
2022-11-18T07:21:13.906Z,9.40
2022-11-18T07:23:41.662Z,9.50
2022-11-18T07:26:09.604Z,9.40
2022-11-18T07:28:37.325Z,9.40
2022-11-18T07:31:06.171Z,9.40
2022-11-18T07:33:35.721Z,9.30
2022-11-18T07:36:03.825Z,9.30
2022-11-18T07:38:31.606Z,9.30
2022-11-18T07:41:03.952Z,9.30
2022-11-18T07:43:31.626Z,9.30
2022-11-18T07:45:59.286Z,9.30
2022-11-18T07:48:26.982Z,9.30
2022-11-18T07:50:56.334Z,9.30
2022-11-18T07:53:24.201Z,9.40
2022-11-18T07:55:52.333Z,9.30
2022-11-18T07:58:20.157Z,9.30
2022-11-18T08:00:47.998Z,9.30
2022-11-18T08:03:15.700Z,9.30
2022-11-18T08:05:43.403Z,9.40
2022-11-18T08:08:12.435Z,9.50
2022-11-18T08:10:40.107Z,9.50
2022-11-18T08:13:07.819Z,9.50
2022-11-18T08:15:35.527Z,9.60
2022-11-18T08:18:03.403Z,9.50
2022-11-18T08:20:31.208Z,9.40
2022-11-18T08:22:58.895Z,9.40
2022-11-18T08:25:27.932Z,9.50
2022-11-18T08:27:55.851Z,9.40
2022-11-18T08:30:23.548Z,9.40
2022-11-18T08:32:51.278Z,9.40
2022-11-18T08:35:19.005Z,9.40
2022-11-18T08:37:46.760Z,9.50
2022-11-18T08:40:14.480Z,9.40
2022-11-18T08:42:43.512Z,9.50
2022-11-18T08:45:11.360Z,9.50
2022-11-18T08:47:39.303Z,9.50
2022-11-18T08:50:08.214Z,9.50
2022-11-18T08:52:36.085Z,9.40
2022-11-18T08:55:04.249Z,9.50
2022-11-18T08:57:32.201Z,9.50
2022-11-18T09:00:01.216Z,9.50
2022-11-18T09:02:28.888Z,9.50
2022-11-18T09:04:56.590Z,9.60
2022-11-18T09:07:24.340Z,9.60
2022-11-18T09:09:52.076Z,9.60
2022-11-18T09:12:19.781Z,9.60
2022-11-18T09:17:36.765Z,9.70
2022-11-18T09:20:04.692Z,9.60
2022-11-18T09:22:32.383Z,9.70
2022-11-18T09:25:00.174Z,9.70
2022-11-18T09:27:27.844Z,9.70
2022-11-18T09:29:55.499Z,9.80
2022-11-18T09:32:23.206Z,9.90
2022-11-18T09:34:52.288Z,10.00
2022-11-18T09:37:20.015Z,10.10
2022-11-18T09:39:47.901Z,10.20
2022-11-18T09:42:22.051Z,10.20
2022-11-18T09:44:54.150Z,10.40
2022-11-18T09:47:25.784Z,10.40
2022-11-18T09:49:55.186Z,10.40
2022-11-18T09:52:24.076Z,10.40
2022-11-18T09:54:51.924Z,10.40
2022-11-18T09:57:21.259Z,10.50
2022-11-18T09:59:49.038Z,10.60
2022-11-18T10:02:25.867Z,10.60
2022-11-18T10:04:55.643Z,10.70
2022-11-18T10:07:36.076Z,10.70
2022-11-18T10:10:11.351Z,10.80
2022-11-18T10:12:42.772Z,10.80
2022-11-18T10:15:19.418Z,10.90
2022-11-18T10:17:52.300Z,10.90
2022-11-18T10:20:25.338Z,10.80
2022-11-18T10:22:54.757Z,10.80
2022-11-18T10:25:22.446Z,11.00
2022-11-18T10:27:50.785Z,11.00
2022-11-18T10:30:19.677Z,11.10
2022-11-18T10:32:54.142Z,11.10
2022-11-18T10:35:26.076Z,11.10
2022-11-18T10:38:08.516Z,11.10
2022-11-18T10:40:38.807Z,11.00
2022-11-18T10:43:06.482Z,10.90
2022-11-18T10:45:34.248Z,10.90
2022-11-18T10:48:03.389Z,10.90
2022-11-18T10:50:34.006Z,11.00
2022-11-18T10:53:01.968Z,11.00
2022-11-18T10:55:30.414Z,11.00
2022-11-18T10:58:01.215Z,11.10
2022-11-18T11:00:36.522Z,11.30
2022-11-18T11:03:16.166Z,11.40
2022-11-18T11:05:45.264Z,11.40
2022-11-18T11:08:37.272Z,11.40
2022-11-18T11:11:05.520Z,11.40
2022-11-18T11:13:33.502Z,11.50
2022-11-18T11:16:03.397Z,11.50
2022-11-18T11:18:46.526Z,11.70
2022-11-18T11:21:15.861Z,11.70
2022-11-18T11:23:43.989Z,11.80
2022-11-18T11:29:08.945Z,11.80
2022-11-18T11:31:40.507Z,11.70
2022-11-18T11:34:12.787Z,11.80
2022-11-18T11:36:46.685Z,11.80
2022-11-18T11:39:27.280Z,11.70
2022-11-18T11:42:02.017Z,11.80
2022-11-18T11:44:33.244Z,11.90
2022-11-18T11:47:36.466Z,12.10
2022-11-18T11:50:09.700Z,12.40
2022-11-18T11:52:41.977Z,12.60
2022-11-18T11:55:17.248Z,12.50
2022-11-18T11:57:51.802Z,12.40
2022-11-18T12:00:20.572Z,12.50
2022-11-18T12:03:01.579Z,12.50
2022-11-18T12:05:34.157Z,12.60
2022-11-18T12:08:04.189Z,12.50
2022-11-18T12:10:37.994Z,12.50
2022-11-18T12:13:29.727Z,12.30
2022-11-18T12:16:06.095Z,12.20
2022-11-18T12:18:37.008Z,12.00
2022-11-18T12:21:04.790Z,11.90
2022-11-18T12:23:34.635Z,11.80
2022-11-18T12:26:04.083Z,11.70
2022-11-18T12:28:33.331Z,11.80
2022-11-18T12:31:28.132Z,11.70
2022-11-18T12:33:56.918Z,11.80
2022-11-18T12:36:27.897Z,11.90
2022-11-18T12:38:57.539Z,12.00
2022-11-18T12:42:04.114Z,12.00
2022-11-18T12:44:31.913Z,12.20
2022-11-18T12:46:59.665Z,12.40
2022-11-18T12:49:46.120Z,12.50
2022-11-18T12:52:28.669Z,12.60
2022-11-18T12:54:58.526Z,12.60
2022-11-18T12:57:29.286Z,12.50
2022-11-18T12:59:57.132Z,12.60
2022-11-18T13:02:25.689Z,12.60
2022-11-18T13:05:08.246Z,12.70
2022-11-18T13:07:58.111Z,12.70
2022-11-18T13:10:28.492Z,12.50
2022-11-18T13:12:56.177Z,12.50
2022-11-18T13:15:41.742Z,12.50
2022-11-18T13:18:13.951Z,12.60
2022-11-18T13:20:43.183Z,12.70
2022-11-18T13:23:45.662Z,12.80
2022-11-18T13:26:16.726Z,12.90
2022-11-18T13:28:47.313Z,13.00
2022-11-18T13:31:18.658Z,13.00
2022-11-18T13:33:46.437Z,12.80
2022-11-18T13:36:18.181Z,12.80
2022-11-18T13:38:55.410Z,12.70
2022-11-18T13:41:32.481Z,12.60
2022-11-18T13:44:13.287Z,12.60
2022-11-18T13:46:41.750Z,12.50
2022-11-18T13:49:12.923Z,12.30
2022-11-18T13:51:40.687Z,12.30
2022-11-18T13:54:11.522Z,12.10
2022-11-18T13:56:41.203Z,12.10
2022-11-18T13:59:17.855Z,11.90
2022-11-18T14:01:47.008Z,11.80
2022-11-18T14:04:20.681Z,11.80
2022-11-18T14:06:48.671Z,11.80
2022-11-18T14:09:19.647Z,11.70
2022-11-18T14:11:59.005Z,11.70
2022-11-18T14:14:30.959Z,11.70
2022-11-18T14:17:16.279Z,11.70
2022-11-18T14:19:44.034Z,11.60
2022-11-18T14:22:14.545Z,11.60
2022-11-18T14:24:42.349Z,11.60
2022-11-18T14:27:28.626Z,11.50
2022-11-18T14:29:57.656Z,11.40
2022-11-18T14:32:25.330Z,11.40
2022-11-18T14:34:58.503Z,11.40
2022-11-18T14:37:26.268Z,11.30
2022-11-18T14:39:57.156Z,11.30
2022-11-18T14:42:25.183Z,11.30
2022-11-18T14:44:52.847Z,11.20
2022-11-18T14:47:25.660Z,11.20
2022-11-18T14:49:53.329Z,11.10
2022-11-18T14:52:21.025Z,11.10
2022-11-18T14:54:48.707Z,11.00
2022-11-18T14:57:17.363Z,10.90
2022-11-18T14:59:45.266Z,10.90
2022-11-18T15:02:14.465Z,10.80
2022-11-18T15:04:43.668Z,10.70
2022-11-18T15:07:16.067Z,10.70
2022-11-18T15:09:46.445Z,10.60
2022-11-18T15:12:14.145Z,10.60
2022-11-18T15:14:41.918Z,10.50
2022-11-18T15:17:12.949Z,10.60
2022-11-18T15:19:41.608Z,10.50
2022-11-18T15:22:10.713Z,10.50
2022-11-18T15:24:38.457Z,10.40
2022-11-18T15:27:06.128Z,10.40
2022-11-18T15:29:33.828Z,10.40
2022-11-18T15:32:05.216Z,10.30
2022-11-18T15:34:32.953Z,10.30
2022-11-18T15:37:00.631Z,10.10
2022-11-18T15:39:29.691Z,10.10
2022-11-18T15:41:57.358Z,10.00
2022-11-18T15:44:25.599Z,9.90
2022-11-18T15:46:53.312Z,9.90
2022-11-18T15:49:21.096Z,9.80
2022-11-18T15:51:48.814Z,9.70
2022-11-18T15:54:16.976Z,9.70
2022-11-18T15:56:46.477Z,9.60
2022-11-18T15:59:14.737Z,9.50
2022-11-18T16:01:43.146Z,9.50
2022-11-18T16:04:11.731Z,9.50
2022-11-18T16:06:39.636Z,9.40
2022-11-18T16:09:07.725Z,9.30
2022-11-18T16:11:53.090Z,9.20
2022-11-18T16:14:23.319Z,9.10
2022-11-18T16:16:52.242Z,9.10
2022-11-18T16:19:20.740Z,9.00
2022-11-18T16:21:49.305Z,9.00
2022-11-18T16:24:18.503Z,9.00
2022-11-18T16:26:46.685Z,9.00
2022-11-18T16:29:16.564Z,9.00
2022-11-18T16:31:50.411Z,9.00
2022-11-18T16:34:19.155Z,9.10
2022-11-18T16:36:47.887Z,9.10
2022-11-18T16:39:16.782Z,9.10
2022-11-18T16:41:45.287Z,9.10
2022-11-18T16:44:14.006Z,9.20
2022-11-18T16:46:42.385Z,9.10
2022-11-18T16:49:13.886Z,9.20
2022-11-18T16:51:42.957Z,9.20
2022-11-18T16:54:16.705Z,9.20
2022-11-18T16:56:44.593Z,9.20
2022-11-18T16:59:13.027Z,9.20
2022-11-18T17:01:40.793Z,9.10
2022-11-18T17:04:08.582Z,9.20
2022-11-18T17:06:51.381Z,9.10
2022-11-18T17:09:20.342Z,9.20
2022-11-18T17:11:48.749Z,9.20
2022-11-18T17:14:16.507Z,9.20
2022-11-18T17:16:44.229Z,9.30
2022-11-18T17:19:13.854Z,9.20
2022-11-18T17:21:41.575Z,9.20
2022-11-18T17:24:12.075Z,9.20
2022-11-18T17:26:39.809Z,9.20
2022-11-18T17:29:07.539Z,9.20
2022-11-18T17:31:35.218Z,9.10
2022-11-18T17:34:02.921Z,9.10
2022-11-18T17:36:30.670Z,9.10
2022-11-18T17:39:00.002Z,9.10
2022-11-18T17:41:47.596Z,9.10
2022-11-18T17:44:16.982Z,9.10
2022-11-18T17:46:46.950Z,9.10
2022-11-18T17:49:16.208Z,9.10
2022-11-18T17:51:45.920Z,9.10
2022-11-18T17:54:14.182Z,9.10
2022-11-18T17:56:43.336Z,9.10
2022-11-18T17:59:11.020Z,9.10
2022-11-18T18:01:39.019Z,9.10
2022-11-18T18:04:07.050Z,9.00
2022-11-18T18:06:34.806Z,9.00
2022-11-18T18:09:02.489Z,9.00
2022-11-18T18:11:30.169Z,9.00
2022-11-18T18:14:13.428Z,9.00
2022-11-18T18:16:42.188Z,9.00
2022-11-18T18:19:10.520Z,9.00
2022-11-18T18:21:38.383Z,9.00
2022-11-18T18:24:06.665Z,9.00
2022-11-18T18:26:34.663Z,9.00
2022-11-18T18:29:04.725Z,9.00
2022-11-18T18:31:34.313Z,9.00
2022-11-18T18:34:02.115Z,9.00
2022-11-18T18:36:29.981Z,9.00
2022-11-18T18:38:57.993Z,8.90
2022-11-18T18:41:25.674Z,8.90
2022-11-18T18:43:53.333Z,8.90
2022-11-18T18:46:36.461Z,8.90
2022-11-18T18:49:05.162Z,8.90
2022-11-18T18:51:33.780Z,8.90
2022-11-18T18:54:01.676Z,8.80
2022-11-18T18:56:29.380Z,8.80
2022-11-18T18:58:57.454Z,8.80
2022-11-18T19:01:26.954Z,8.80
2022-11-18T19:03:55.303Z,8.80
2022-11-18T19:06:51.547Z,8.80
2022-11-18T19:09:13.108Z,8.80
2022-11-18T19:11:58.661Z,8.80
2022-11-18T19:14:27.701Z,8.80
2022-11-18T19:16:57.306Z,8.80
2022-11-18T19:19:39.866Z,8.80
2022-11-18T19:22:07.773Z,8.80
2022-11-18T19:24:49.210Z,8.80
2022-11-18T19:27:17.945Z,8.80
2022-11-18T19:29:45.674Z,8.80
2022-11-18T19:32:14.724Z,8.70
2022-11-18T19:34:42.630Z,8.80
2022-11-18T19:37:10.330Z,8.70
2022-11-18T19:39:38.706Z,8.80
2022-11-18T19:42:07.467Z,8.70
2022-11-18T19:44:35.134Z,8.70
2022-11-18T19:47:02.817Z,8.70
2022-11-18T19:49:31.877Z,8.80
2022-11-18T19:51:59.560Z,8.80
2022-11-18T19:54:27.257Z,8.80
2022-11-18T19:56:55.021Z,8.80
2022-11-18T19:59:22.693Z,8.90
2022-11-18T20:01:50.425Z,8.80
2022-11-18T20:04:18.126Z,8.80
2022-11-18T20:06:47.132Z,8.90
2022-11-18T20:09:14.960Z,8.90
2022-11-18T20:11:44.258Z,8.80
2022-11-18T20:14:12.560Z,8.80
2022-11-18T20:16:40.532Z,8.80
2022-11-18T20:19:13.204Z,8.80
2022-11-18T20:21:43.115Z,8.80
2022-11-18T20:24:15.733Z,8.80
2022-11-18T20:26:43.518Z,8.80
2022-11-18T20:29:11.254Z,8.90
2022-11-18T20:31:38.970Z,8.90
2022-11-18T20:34:06.723Z,9.00
2022-11-18T20:36:35.710Z,9.00
2022-11-18T20:39:04.213Z,9.00
2022-11-18T20:41:33.283Z,9.10
2022-11-18T20:44:00.045Z,9.00
2022-11-18T20:46:28.183Z,9.10
2022-11-18T20:48:56.202Z,9.10
2022-11-18T20:51:24.858Z,9.10
2022-11-18T20:53:53.281Z,9.10
2022-11-18T20:56:21.561Z,9.10
2022-11-18T20:58:50.946Z,9.10
2022-11-18T21:01:19.584Z,9.10
2022-11-18T21:03:48.933Z,9.00
2022-11-18T21:06:16.639Z,9.00
2022-11-18T21:08:44.524Z,9.00
2022-11-18T21:11:12.814Z,9.00
2022-11-18T21:13:58.193Z,8.90
2022-11-18T21:16:27.925Z,9.00
2022-11-18T21:18:55.895Z,9.00
2022-11-18T21:21:41.266Z,9.00
2022-11-18T21:24:09.223Z,9.10
2022-11-18T21:26:37.304Z,9.10
2022-11-18T21:29:06.081Z,9.10
2022-11-18T21:31:35.334Z,9.10
2022-11-18T21:34:03.538Z,9.10
2022-11-18T21:36:31.720Z,9.20
2022-11-18T21:39:00.030Z,9.20
2022-11-18T21:41:27.846Z,9.20
2022-11-18T21:44:05.695Z,9.40
2022-11-18T21:46:35.844Z,9.50
2022-11-18T21:49:03.823Z,9.70
2022-11-18T21:51:32.226Z,9.80
2022-11-18T21:54:00.194Z,9.90
2022-11-18T21:56:31.115Z,10.00
2022-11-18T21:58:59.960Z,10.00
2022-11-18T22:01:28.394Z,10.10
2022-11-18T22:03:58.784Z,10.10
2022-11-18T22:06:27.030Z,10.10
2022-11-18T22:08:54.779Z,10.20
2022-11-18T22:11:22.603Z,10.20
2022-11-18T22:13:50.478Z,10.20
2022-11-18T22:16:18.988Z,10.30
2022-11-18T22:18:51.568Z,10.30
2022-11-18T22:21:22.530Z,10.30
2022-11-18T22:23:50.389Z,10.30
2022-11-18T22:26:18.842Z,10.20
2022-11-18T22:28:46.745Z,10.20
2022-11-18T22:31:15.373Z,10.10
2022-11-18T22:33:43.161Z,10.00
2022-11-18T22:36:12.867Z,10.00
2022-11-18T22:38:43.366Z,9.90
2022-11-18T22:41:32.297Z,9.90
2022-11-18T22:44:02.664Z,9.80
2022-11-18T22:46:33.498Z,9.90
2022-11-18T22:49:01.404Z,10.00
2022-11-18T22:51:29.115Z,10.10
2022-11-18T22:54:22.746Z,10.10
2022-11-18T22:56:46.170Z,10.10
2022-11-18T22:59:14.135Z,9.90
2022-11-18T23:01:41.832Z,9.90
2022-11-18T23:04:09.614Z,9.90
2022-11-18T23:06:37.434Z,9.90
2022-11-18T23:09:06.485Z,10.00
2022-11-18T23:11:51.520Z,10.00
2022-11-18T23:14:19.204Z,10.10
2022-11-18T23:16:46.909Z,9.80
2022-11-18T23:19:15.319Z,9.70
2022-11-18T23:21:43.316Z,9.40
2022-11-18T23:24:13.106Z,9.10
2022-11-18T23:26:40.840Z,9.00
2022-11-18T23:29:08.874Z,8.90
2022-11-18T23:31:36.570Z,8.80
2022-11-18T23:34:04.273Z,8.70
2022-11-18T23:36:31.974Z,8.50
2022-11-18T23:38:59.788Z,8.30
2022-11-18T23:41:28.845Z,8.10
2022-11-18T23:43:56.560Z,8.00
2022-11-18T23:46:25.369Z,8.00
2022-11-18T23:48:53.214Z,7.90
2022-11-18T23:51:21.810Z,7.70
2022-11-18T23:53:53.128Z,7.60
2022-11-18T23:56:21.564Z,7.50
2022-11-18T23:58:51.463Z,7.50
